Creek Data

    Home     View Charts     View Raw Data     Messages

ID Distance Battery Voltage Battery Current Internal Temp Internal Humidity External Temp Solar Input rssi snr Time Stamp Record
66146 15.1 4.03 0 35 50 37 4.5 -73 9 02/13/2026 07:30 AM 48952
66145 15.1 3.97 0 35 51 36 4.5 -72 8 02/13/2026 07:15 AM 48951
66144 15.1 3.82 -30 35 51 35 4.3 -72 8 02/13/2026 07:00 AM 48950
66143 15.1 3.84 -5 37 50 35 1 -72 8 02/13/2026 06:45 AM 48949
66142 15.1 3.95 -5 38 50 39 0.1 -72 8 02/13/2026 06:30 AM 48948
66141 15.1 3.84 -5 38 50 39 0 -72 8 02/13/2026 06:15 AM 48947
66140 15.1 3.95 -5 38 51 42 0 -72 8 02/13/2026 06:00 AM 48946
66139 15.1 3.77 -5 38 51 41 0 -72 8 02/13/2026 05:45 AM 48945
66138 15.1 3.74 -5 38 51 38 0 -71 8 02/13/2026 05:30 AM 48944
66137 15.1 3.94 -5 39 51 41 0 -72 6 02/13/2026 05:15 AM 48943
66136 15.1 3.74 -5 40 50 41 0 -72 8 02/13/2026 05:00 AM 48942
66135 15.1 3.75 -5 42 49 43 0 -72 8 02/13/2026 04:45 AM 48941
66134 15.1 3.83 -5 42 49 44 0 -72 8 02/13/2026 04:30 AM 48940
66133 15.1 3.83 -5 41 49 44 0.1 -72 8 02/13/2026 04:15 AM 48939
66132 15.1 3.82 -5 40 50 44 0 -72 8 02/13/2026 04:00 AM 48938
66131 15.1 3.83 -5 40 50 41 0 -72 8 02/13/2026 03:45 AM 48937
66130 15.1 3.83 -5 40 50 42 0 -72 7 02/13/2026 03:30 AM 48936
66129 15.1 3.82 -5 39 51 42 0 -72 8 02/13/2026 03:15 AM 48935
66128 15.1 3.84 -5 40 51 41 0 -71 8 02/13/2026 03:00 AM 48934
66127 15.1 3.76 -5 41 51 42 0 -72 8 02/13/2026 02:45 AM 48933
66126 15.1 3.96 -5 42 51 44 0.1 -71 7 02/13/2026 02:30 AM 48932
66125 15.1 3.83 -5 42 51 43 0 -71 8 02/13/2026 02:15 AM 48931
66124 15.1 3.96 -5 42 51 44 0.1 -71 8 02/13/2026 02:00 AM 48930
66123 15.1 3.82 -5 43 51 44 0 -71 9 02/13/2026 01:45 AM 48929
66122 15.1 3.82 -5 44 50 46 0 -71 8 02/13/2026 01:30 AM 48928